createdAt,value
2018-03-11T00:02:24.818Z,11.33
2018-03-11T00:04:54.250Z,12.17
2018-03-11T00:07:23.747Z,11.17
2018-03-11T00:09:53.274Z,11.83
2018-03-11T00:12:22.731Z,11.33
2018-03-11T00:14:52.171Z,11.57
2018-03-11T00:17:21.599Z,10.77
2018-03-11T00:19:51.046Z,11.03
2018-03-11T00:22:20.483Z,10.50
2018-03-11T00:24:49.983Z,9.73
2018-03-11T00:27:19.405Z,9.40
2018-03-11T00:29:48.862Z,9.73
2018-03-11T00:32:18.347Z,9.83
2018-03-11T00:34:47.806Z,10.40
2018-03-11T00:37:17.330Z,9.53
2018-03-11T00:39:46.779Z,8.40
2018-03-11T00:42:16.224Z,10.57
2018-03-11T00:44:45.731Z,10.23
2018-03-11T00:47:14.978Z,9.37
2018-03-11T00:49:44.540Z,8.87
2018-03-11T00:52:13.982Z,10.97
2018-03-11T00:54:43.429Z,8.47
2018-03-11T00:57:12.874Z,8.10
2018-03-11T00:59:42.326Z,9.10
2018-03-11T01:02:11.770Z,8.90
2018-03-11T01:04:41.194Z,9.93
2018-03-11T01:07:10.634Z,8.90
2018-03-11T01:09:40.076Z,10.40
2018-03-11T01:12:09.520Z,11.13
2018-03-11T01:14:39.109Z,11.33
2018-03-11T01:17:08.542Z,10.23
2018-03-11T01:19:37.995Z,12.20
2018-03-11T01:22:07.458Z,10.13
2018-03-11T01:24:36.882Z,11.07
2018-03-11T01:27:06.337Z,11.20
2018-03-11T01:29:35.769Z,10.40
2018-03-11T01:32:05.213Z,10.70
2018-03-11T01:34:34.754Z,11.20
2018-03-11T01:37:04.187Z,10.10
2018-03-11T01:39:33.634Z,10.93
2018-03-11T01:42:03.083Z,9.47
2018-03-11T01:44:32.533Z,9.77
2018-03-11T01:47:02.073Z,9.90
2018-03-11T01:49:31.522Z,11.07
2018-03-11T01:52:00.949Z,10.90
2018-03-11T01:54:30.406Z,12.10
2018-03-11T01:56:59.885Z,14.80
2018-03-11T01:59:29.350Z,11.30
2018-03-11T02:01:58.898Z,11.10
2018-03-11T02:04:28.370Z,8.63
2018-03-11T02:06:57.997Z,8.50
2018-03-11T02:09:27.445Z,10.67
2018-03-11T02:11:57.056Z,10.27
2018-03-11T02:14:26.637Z,12.03
2018-03-11T02:16:56.069Z,10.77
2018-03-11T02:19:25.748Z,13.07
2018-03-11T02:21:55.190Z,13.13
2018-03-11T02:24:24.660Z,9.97
2018-03-11T02:26:54.091Z,12.33
2018-03-11T02:29:23.542Z,10.47
2018-03-11T02:31:53.077Z,10.50
2018-03-11T02:34:22.542Z,13.10
2018-03-11T02:36:52.022Z,10.40
2018-03-11T02:39:21.466Z,11.10
2018-03-11T02:41:51.031Z,11.47
2018-03-11T02:44:20.462Z,9.73
2018-03-11T02:46:50.031Z,13.20
2018-03-11T02:49:19.459Z,10.10
2018-03-11T02:51:48.911Z,11.60
2018-03-11T02:54:18.348Z,14.40
2018-03-11T02:56:47.846Z,10.33
2018-03-11T02:59:17.290Z,10.47
2018-03-11T03:01:46.755Z,10.27
2018-03-11T03:04:16.189Z,10.53
2018-03-11T03:06:45.722Z,10.23
2018-03-11T03:09:15.161Z,11.43
2018-03-11T03:11:44.605Z,12.30
2018-03-11T03:14:14.062Z,13.07
2018-03-11T03:16:43.517Z,16.63
2018-03-11T03:19:13.085Z,13.03
2018-03-11T03:21:42.514Z,12.83
2018-03-11T03:24:11.965Z,11.97
2018-03-11T03:26:41.425Z,14.00
2018-03-11T03:29:10.883Z,13.57
2018-03-11T03:31:40.359Z,15.90
2018-03-11T03:34:09.790Z,11.90
2018-03-11T03:36:39.258Z,12.00
2018-03-11T03:39:08.714Z,16.23
2018-03-11T03:41:38.161Z,12.30
2018-03-11T03:44:07.625Z,13.53
2018-03-11T03:46:37.074Z,15.10
2018-03-11T03:49:06.539Z,15.50
2018-03-11T03:51:35.990Z,12.60
2018-03-11T03:54:05.438Z,14.30
2018-03-11T03:56:34.890Z,12.60
2018-03-11T03:59:04.646Z,17.40
2018-03-11T04:01:34.154Z,13.10
2018-03-11T04:04:03.590Z,12.70
2018-03-11T04:06:33.054Z,16.00
2018-03-11T04:09:02.504Z,13.63
2018-03-11T04:11:31.930Z,15.20
2018-03-11T04:14:01.383Z,14.00
2018-03-11T04:16:30.921Z,13.30
2018-03-11T04:19:00.359Z,14.30
2018-03-11T04:21:29.805Z,12.30
2018-03-11T04:23:59.241Z,14.30
2018-03-11T04:26:28.698Z,13.43
2018-03-11T04:28:58.137Z,14.63
2018-03-11T04:31:27.596Z,20.10
2018-03-11T04:33:57.032Z,15.13
2018-03-11T04:36:26.526Z,14.80
2018-03-11T04:38:55.974Z,16.27
2018-03-11T04:41:25.454Z,15.37
2018-03-11T04:43:54.900Z,16.07
2018-03-11T04:46:24.357Z,14.70
2018-03-11T04:48:53.795Z,15.30
2018-03-11T04:51:23.230Z,14.50
2018-03-11T04:53:52.695Z,13.07
2018-03-11T04:56:22.146Z,14.83
2018-03-11T04:58:51.613Z,14.67
2018-03-11T05:01:21.097Z,14.47
2018-03-11T05:03:50.555Z,15.60
2018-03-11T05:06:20.145Z,14.87
2018-03-11T05:08:49.610Z,16.03
2018-03-11T05:11:19.046Z,13.43
2018-03-11T05:13:48.495Z,13.27
2018-03-11T05:16:17.933Z,14.80
2018-03-11T05:18:47.387Z,13.23
2018-03-11T05:21:16.818Z,15.30
2018-03-11T05:23:46.267Z,14.70
2018-03-11T05:26:15.706Z,13.90
2018-03-11T05:28:45.164Z,15.73
2018-03-11T05:31:14.597Z,15.53
2018-03-11T05:33:44.030Z,14.60
2018-03-11T05:36:13.507Z,14.13
2018-03-11T05:38:42.978Z,16.57
2018-03-11T05:41:12.409Z,13.83
2018-03-11T05:43:41.873Z,13.33
2018-03-11T05:46:11.310Z,14.97
2018-03-11T05:48:40.857Z,18.87
2018-03-11T05:51:10.290Z,14.03
2018-03-11T05:53:39.745Z,11.50
2018-03-11T05:56:09.174Z,11.93
2018-03-11T05:58:38.625Z,12.47
2018-03-11T06:01:08.238Z,14.00
2018-03-11T06:03:37.865Z,13.20
2018-03-11T06:06:07.354Z,12.03
2018-03-11T06:08:36.797Z,10.87
2018-03-11T06:11:06.250Z,11.87
2018-03-11T06:13:35.678Z,12.43
2018-03-11T06:16:05.302Z,15.47
2018-03-11T06:18:34.741Z,13.40
2018-03-11T06:21:04.205Z,14.10
2018-03-11T06:23:33.630Z,13.70
2018-03-11T06:26:03.113Z,13.73
2018-03-11T06:28:32.543Z,12.83
2018-03-11T06:31:02.003Z,14.93
2018-03-11T06:33:31.250Z,15.70
2018-03-11T06:36:00.698Z,16.10
2018-03-11T06:38:30.135Z,18.83
2018-03-11T06:40:59.639Z,18.70
2018-03-11T06:43:29.069Z,19.67
2018-03-11T06:45:58.521Z,17.30
2018-03-11T06:48:27.971Z,23.03
2018-03-11T06:50:57.570Z,17.77
2018-03-11T06:53:27.001Z,17.33
2018-03-11T06:55:56.447Z,18.67
2018-03-11T06:58:25.892Z,18.77
2018-03-11T07:00:55.402Z,19.83
2018-03-11T07:03:24.842Z,18.33
2018-03-11T07:05:54.298Z,18.70
2018-03-11T07:08:23.730Z,16.17
2018-03-11T07:10:53.227Z,19.10
2018-03-11T07:13:22.826Z,17.40
2018-03-11T07:15:52.339Z,17.97
2018-03-11T07:18:21.770Z,17.27
2018-03-11T07:20:51.212Z,16.67
2018-03-11T07:23:20.653Z,17.07
2018-03-11T07:25:50.097Z,20.27
2018-03-11T07:28:19.582Z,18.07
2018-03-11T07:30:49.019Z,20.27
2018-03-11T07:33:18.479Z,18.97
2018-03-11T07:35:47.927Z,18.53
2018-03-11T07:38:17.567Z,18.73
2018-03-11T07:40:47.010Z,17.13
2018-03-11T07:43:16.466Z,17.23
2018-03-11T07:45:45.931Z,16.77
2018-03-11T07:48:15.399Z,16.43
2018-03-11T07:50:44.855Z,16.63
2018-03-11T07:53:14.306Z,17.47
2018-03-11T07:55:43.757Z,15.77
2018-03-11T07:58:13.215Z,15.20
2018-03-11T08:00:42.662Z,16.00
2018-03-11T08:03:12.117Z,15.13
2018-03-11T08:05:41.565Z,13.90
2018-03-11T08:08:11.009Z,13.60
2018-03-11T08:10:40.621Z,14.63
2018-03-11T08:13:10.054Z,11.63
2018-03-11T08:15:39.496Z,10.80
2018-03-11T08:18:08.918Z,12.37
2018-03-11T08:20:38.361Z,12.00
2018-03-11T08:23:07.812Z,11.23
2018-03-11T08:25:37.275Z,12.00
2018-03-11T08:28:06.743Z,12.00
2018-03-11T08:30:36.388Z,11.60
2018-03-11T08:33:05.830Z,13.60
2018-03-11T08:35:35.270Z,12.80
2018-03-11T08:38:04.390Z,12.73
2018-03-11T08:40:33.831Z,11.40
2018-03-11T08:43:03.285Z,12.43
2018-03-11T08:45:32.909Z,11.70
2018-03-11T08:48:02.360Z,12.03
2018-03-11T08:50:31.787Z,9.47
2018-03-11T08:53:01.261Z,10.97
2018-03-11T08:55:30.694Z,7.77
2018-03-11T08:58:00.126Z,8.03
2018-03-11T09:00:29.571Z,4.83
2018-03-11T09:02:59.002Z,5.30
2018-03-11T09:05:28.462Z,3.47
2018-03-11T09:07:57.915Z,3.57
2018-03-11T09:10:27.402Z,4.07
2018-03-11T09:12:57.191Z,4.37
2018-03-11T09:15:26.642Z,3.13
2018-03-11T09:17:56.290Z,3.63
2018-03-11T09:20:25.740Z,3.13
2018-03-11T09:22:55.165Z,3.50
2018-03-11T09:25:24.609Z,3.03
2018-03-11T09:27:54.065Z,3.37
2018-03-11T09:30:23.494Z,3.20
2018-03-11T09:32:52.951Z,3.23
2018-03-11T09:35:22.386Z,3.33
2018-03-11T09:37:51.498Z,4.23
2018-03-11T09:40:20.930Z,3.13
2018-03-11T09:42:50.365Z,3.03
2018-03-11T09:45:19.862Z,4.07
2018-03-11T09:47:49.319Z,4.40
2018-03-11T09:50:18.798Z,3.47
2018-03-11T09:52:48.245Z,3.30
2018-03-11T09:55:17.705Z,3.30
2018-03-11T09:57:47.150Z,3.40
2018-03-11T10:00:16.943Z,3.87
2018-03-11T10:02:46.369Z,3.53
2018-03-11T10:05:15.820Z,3.23
2018-03-11T10:07:45.272Z,2.73
2018-03-11T10:10:14.729Z,2.23
2018-03-11T10:12:44.179Z,3.83
2018-03-11T10:15:13.657Z,3.33
2018-03-11T10:17:43.082Z,4.30
2018-03-11T10:20:12.627Z,4.33
2018-03-11T10:22:42.054Z,3.50
2018-03-11T10:25:11.510Z,2.70
2018-03-11T10:27:40.953Z,2.40
2018-03-11T10:30:10.451Z,2.40
2018-03-11T10:32:40.018Z,2.50
2018-03-11T10:35:09.466Z,2.57
2018-03-11T10:37:38.907Z,2.23
2018-03-11T10:40:08.371Z,1.77
2018-03-11T10:42:37.806Z,1.30
2018-03-11T10:45:07.262Z,1.53
2018-03-11T10:47:36.756Z,2.17
2018-03-11T10:50:06.183Z,3.10
2018-03-11T10:52:35.630Z,2.20
2018-03-11T10:55:05.056Z,2.50
2018-03-11T10:57:34.501Z,2.00
2018-03-11T11:00:03.605Z,2.03
2018-03-11T11:02:36.649Z,2.53
2018-03-11T11:05:06.290Z,2.27
2018-03-11T11:07:35.750Z,4.33
2018-03-11T11:10:05.175Z,1.80
2018-03-11T11:12:34.619Z,1.93
2018-03-11T11:15:04.054Z,3.13
2018-03-11T11:17:33.530Z,1.60
2018-03-11T11:20:02.999Z,2.03
2018-03-11T11:22:32.433Z,1.97
2018-03-11T11:25:01.890Z,3.50
2018-03-11T11:27:31.390Z,2.30
2018-03-11T11:30:00.891Z,2.63
2018-03-11T11:32:30.330Z,3.00
2018-03-11T11:34:59.804Z,2.60
2018-03-11T11:37:29.494Z,2.70
2018-03-11T11:39:58.951Z,3.87
2018-03-11T11:42:28.391Z,8.37
2018-03-11T11:44:57.890Z,5.70
2018-03-11T11:47:29.059Z,3.47
2018-03-11T11:49:58.502Z,4.07
2018-03-11T11:52:27.927Z,6.80
2018-03-11T11:54:57.378Z,3.37
2018-03-11T11:57:26.799Z,4.33
2018-03-11T11:59:56.287Z,4.23
2018-03-11T12:02:25.721Z,4.77
2018-03-11T12:04:55.178Z,5.60
2018-03-11T12:07:24.621Z,5.17
2018-03-11T12:09:54.112Z,4.00
2018-03-11T12:12:23.563Z,6.23
2018-03-11T12:14:54.081Z,6.60
2018-03-11T12:17:23.696Z,6.87
2018-03-11T12:19:53.286Z,7.10
2018-03-11T12:22:22.751Z,6.30
2018-03-11T12:24:52.303Z,6.37
2018-03-11T12:27:21.747Z,6.37
2018-03-11T12:29:51.190Z,6.57
2018-03-11T12:32:20.674Z,5.70
2018-03-11T12:34:50.191Z,6.40
2018-03-11T12:37:19.662Z,5.50
2018-03-11T12:39:49.210Z,5.67
2018-03-11T12:42:18.676Z,5.30
2018-03-11T12:44:48.122Z,5.80
2018-03-11T12:47:17.600Z,6.27
2018-03-11T12:49:47.033Z,5.63
2018-03-11T12:52:16.462Z,6.70
2018-03-11T12:54:45.911Z,5.60
2018-03-11T12:57:15.381Z,5.13
2018-03-11T12:59:44.816Z,7.43
2018-03-11T13:02:14.266Z,5.63
2018-03-11T13:04:43.709Z,5.60
2018-03-11T13:07:13.146Z,5.27
2018-03-11T13:09:42.597Z,5.47
2018-03-11T13:12:12.041Z,5.03
2018-03-11T13:14:41.507Z,5.23
2018-03-11T13:17:10.613Z,5.13
2018-03-11T13:19:40.078Z,5.60
2018-03-11T13:22:09.504Z,5.70
2018-03-11T13:24:38.954Z,5.03
2018-03-11T13:27:08.415Z,5.30
2018-03-11T13:29:37.854Z,6.10
2018-03-11T13:32:12.942Z,5.40
2018-03-11T13:34:42.400Z,5.53
2018-03-11T13:37:11.827Z,4.90
2018-03-11T13:39:46.897Z,5.90
2018-03-11T13:42:16.317Z,4.90
2018-03-11T13:44:45.405Z,4.50
2018-03-11T14:00:06.131Z,4.57
2018-03-11T14:02:35.586Z,5.10
2018-03-11T14:05:05.053Z,7.60
2018-03-11T14:07:34.530Z,8.27
2018-03-11T14:10:03.638Z,8.80
2018-03-11T14:12:33.089Z,4.80
2018-03-11T14:15:02.543Z,4.67
2018-03-11T14:17:32.010Z,4.00
2018-03-11T14:20:01.470Z,5.20
2018-03-11T14:22:30.900Z,3.40
2018-03-11T14:25:00.371Z,4.77
2018-03-11T14:27:29.810Z,6.30
2018-03-11T14:29:59.337Z,4.40
2018-03-11T14:32:28.774Z,5.20
2018-03-11T14:34:58.262Z,2.83
2018-03-11T14:37:27.683Z,2.70
2018-03-11T14:39:57.145Z,3.17
2018-03-11T14:42:26.766Z,2.90
2018-03-11T14:44:56.207Z,2.23
2018-03-11T14:47:25.655Z,4.10
2018-03-11T14:49:55.135Z,4.63
2018-03-11T14:52:24.554Z,3.30
2018-03-11T14:54:53.987Z,4.00
2018-03-11T14:57:23.426Z,3.30
2018-03-11T14:59:52.935Z,3.47
2018-03-11T15:02:22.399Z,3.70
2018-03-11T15:04:51.872Z,4.13
2018-03-11T15:07:21.314Z,3.93
2018-03-11T15:09:50.779Z,4.50
2018-03-11T15:12:20.218Z,3.67
2018-03-11T15:14:49.670Z,3.30
2018-03-11T15:17:19.142Z,3.50
2018-03-11T15:19:48.586Z,5.13
2018-03-11T15:22:18.098Z,3.77
2018-03-11T15:24:47.538Z,4.03
2018-03-11T15:27:16.967Z,4.87
2018-03-11T15:29:46.398Z,5.17
2018-03-11T15:32:15.758Z,4.23
2018-03-11T15:34:45.348Z,3.40
2018-03-11T15:37:14.818Z,4.73
2018-03-11T15:39:44.266Z,4.00
2018-03-11T15:42:13.719Z,3.50
2018-03-11T15:44:43.217Z,3.73
2018-03-11T15:47:12.691Z,4.47
2018-03-11T15:49:42.141Z,5.37
2018-03-11T15:52:11.575Z,4.77
2018-03-11T15:54:41.093Z,5.57
2018-03-11T15:57:10.551Z,7.50
2018-03-11T15:59:40.063Z,8.67
2018-03-11T16:02:09.547Z,6.80
2018-03-11T16:04:39.014Z,5.37
2018-03-11T16:07:08.471Z,5.47
2018-03-11T16:09:38.170Z,6.73
2018-03-11T16:12:07.610Z,5.43
2018-03-11T16:14:37.074Z,4.40
2018-03-11T16:17:06.507Z,4.20
2018-03-11T16:19:35.952Z,3.93
2018-03-11T16:22:05.506Z,3.57
2018-03-11T16:24:39.723Z,4.53
2018-03-11T16:27:04.277Z,4.57
2018-03-11T16:29:33.738Z,4.63
2018-03-11T16:32:03.295Z,5.90
2018-03-11T16:34:32.833Z,8.77
2018-03-11T16:37:02.408Z,10.70
2018-03-11T16:39:31.861Z,9.77
2018-03-11T16:42:01.300Z,10.00
2018-03-11T16:44:30.751Z,11.20
2018-03-11T16:47:00.014Z,17.93
2018-03-11T16:49:29.475Z,26.07
2018-03-11T16:51:58.923Z,26.50
2018-03-11T16:54:28.396Z,22.77
2018-03-11T16:56:57.837Z,14.40
2018-03-11T16:59:27.298Z,13.17
2018-03-11T17:01:56.817Z,14.27
2018-03-11T17:04:26.329Z,7.43
2018-03-11T17:06:55.887Z,8.97
2018-03-11T17:09:25.326Z,8.67
2018-03-11T17:11:54.807Z,12.60
2018-03-11T17:14:24.285Z,21.37
2018-03-11T17:16:53.754Z,36.50
2018-03-11T17:19:22.718Z,37.03
2018-03-11T17:21:52.179Z,19.17
2018-03-11T17:24:21.612Z,17.87
2018-03-11T17:26:51.076Z,15.60
2018-03-11T17:29:20.513Z,9.20
2018-03-11T17:31:50.095Z,6.70
2018-03-11T17:34:19.534Z,5.90
2018-03-11T17:36:49.079Z,6.77
2018-03-11T17:39:18.626Z,9.50
2018-03-11T17:41:48.058Z,9.50
2018-03-11T17:44:17.530Z,7.30
2018-03-11T17:46:47.046Z,6.50
2018-03-11T17:49:16.705Z,6.50
2018-03-11T17:51:46.193Z,7.40
2018-03-11T17:54:15.666Z,9.00
2018-03-11T17:56:45.125Z,10.00
2018-03-11T17:59:14.937Z,10.70
2018-03-11T18:01:44.474Z,9.90
2018-03-11T18:04:13.938Z,14.73
2018-03-11T18:06:43.438Z,11.20
2018-03-11T18:09:12.902Z,9.23
2018-03-11T18:11:42.361Z,9.40
2018-03-11T18:14:11.843Z,10.93
2018-03-11T18:16:41.286Z,13.50
2018-03-11T18:19:10.722Z,9.93
2018-03-11T18:21:40.177Z,9.50
2018-03-11T18:24:09.636Z,16.90
2018-03-11T18:26:39.120Z,16.10
2018-03-11T18:29:08.567Z,11.90
2018-03-11T18:31:38.067Z,14.00
2018-03-11T18:34:07.502Z,12.77
2018-03-11T18:36:37.070Z,11.90
2018-03-11T18:39:06.674Z,11.47
2018-03-11T18:41:36.118Z,14.20
2018-03-11T18:44:05.650Z,11.80
2018-03-11T18:46:35.110Z,13.83
2018-03-11T18:49:04.562Z,12.20
2018-03-11T18:51:34.065Z,14.93
2018-03-11T18:54:03.669Z,12.10
2018-03-11T18:56:33.159Z,14.27
2018-03-11T18:59:02.645Z,14.50
2018-03-11T19:01:32.162Z,15.10
2018-03-11T19:04:01.603Z,13.03
2018-03-11T19:06:31.128Z,12.87
2018-03-11T19:09:00.891Z,19.37
2018-03-11T19:11:30.546Z,20.00
2018-03-11T19:14:00.011Z,18.57
2018-03-11T19:16:29.470Z,17.60
2018-03-11T19:18:58.947Z,14.20
2018-03-11T19:21:28.409Z,11.83
2018-03-11T19:23:57.913Z,10.87
2018-03-11T19:26:27.556Z,11.33
2018-03-11T19:28:57.027Z,12.83
2018-03-11T19:31:26.473Z,11.47
2018-03-11T19:33:55.942Z,12.87
2018-03-11T19:36:25.549Z,16.50
2018-03-11T19:38:55.193Z,15.77
2018-03-11T19:41:24.670Z,12.63
2018-03-11T19:43:54.127Z,13.37
2018-03-11T19:46:23.603Z,11.93
2018-03-11T19:48:53.114Z,14.47
2018-03-11T19:51:22.712Z,13.63
2018-03-11T19:53:52.179Z,10.70
2018-03-11T19:56:21.680Z,10.07
2018-03-11T19:58:51.144Z,10.00
2018-03-11T20:01:20.645Z,12.83
2018-03-11T20:03:50.138Z,12.93
2018-03-11T20:06:19.607Z,18.43
2018-03-11T20:08:49.055Z,17.73
2018-03-11T20:11:18.532Z,15.60
2018-03-11T20:13:47.979Z,22.43
2018-03-11T20:16:17.415Z,21.97
2018-03-11T20:18:46.883Z,19.07
2018-03-11T20:21:16.346Z,19.80
2018-03-11T20:23:45.794Z,19.53
2018-03-11T20:26:15.286Z,19.87
2018-03-11T20:28:44.734Z,20.50
2018-03-11T20:31:14.266Z,24.77
2018-03-11T20:33:43.751Z,23.93
2018-03-11T20:36:13.209Z,26.50
2018-03-11T20:38:42.663Z,24.17
2018-03-11T20:41:12.286Z,22.33
2018-03-11T20:43:41.759Z,22.70
2018-03-11T20:46:11.220Z,21.10
2018-03-11T20:48:40.715Z,24.63
2018-03-11T20:51:10.167Z,31.50
2018-03-11T20:53:39.635Z,26.10
2018-03-11T20:56:09.094Z,28.27
2018-03-11T20:58:38.913Z,33.33
2018-03-11T21:01:08.408Z,33.00
2018-03-11T21:03:37.917Z,31.97
2018-03-11T21:06:07.210Z,31.90
2018-03-11T21:08:36.648Z,38.30
2018-03-11T21:11:06.118Z,38.93
2018-03-11T21:13:35.602Z,30.50
2018-03-11T21:16:05.071Z,23.63
2018-03-11T21:18:34.538Z,21.83
2018-03-11T21:21:04.002Z,22.20
2018-03-11T21:23:33.434Z,21.50
2018-03-11T21:26:02.906Z,21.67
2018-03-11T21:28:32.378Z,23.33
2018-03-11T21:31:01.837Z,24.57
2018-03-11T21:33:31.290Z,23.13
2018-03-11T21:36:00.749Z,22.70
2018-03-11T21:38:30.198Z,26.33
2018-03-11T21:40:59.650Z,29.70
2018-03-11T21:43:29.110Z,24.73
2018-03-11T21:45:58.560Z,23.37
2018-03-11T21:48:28.018Z,27.17
2018-03-11T21:50:57.563Z,24.37
2018-03-11T21:53:27.030Z,24.50
2018-03-11T21:55:56.479Z,21.87
2018-03-11T21:58:25.977Z,22.30
2018-03-11T22:00:55.418Z,23.17
2018-03-11T22:03:24.865Z,23.03
2018-03-11T22:05:54.322Z,21.30
2018-03-11T22:08:23.814Z,23.07
2018-03-11T22:10:53.245Z,25.30
2018-03-11T22:13:22.776Z,22.17
2018-03-11T22:15:52.230Z,23.23
2018-03-11T22:18:21.674Z,24.70
2018-03-11T22:20:51.205Z,19.23
2018-03-11T22:23:20.641Z,19.03
2018-03-11T22:25:50.110Z,22.20
2018-03-11T22:28:19.558Z,20.37
2018-03-11T22:30:49.082Z,20.20
2018-03-11T22:33:18.530Z,19.30
2018-03-11T22:35:47.990Z,20.83
2018-03-11T22:38:17.430Z,20.80
2018-03-11T22:40:47.009Z,22.80
2018-03-11T22:43:16.446Z,23.10
2018-03-11T22:45:45.907Z,23.53
2018-03-11T22:48:15.337Z,22.47
2018-03-11T22:50:44.815Z,22.27
2018-03-11T22:53:14.267Z,22.27
2018-03-11T22:55:43.721Z,20.30
2018-03-11T22:58:13.179Z,19.60
2018-03-11T23:00:42.620Z,21.37
2018-03-11T23:03:12.066Z,25.50
2018-03-11T23:05:41.510Z,21.20
2018-03-11T23:08:10.622Z,20.90
2018-03-11T23:10:40.058Z,18.87
2018-03-11T23:13:09.509Z,21.17
2018-03-11T23:15:38.937Z,19.63
2018-03-11T23:18:08.386Z,17.03
2018-03-11T23:20:37.864Z,18.43
2018-03-11T23:23:07.306Z,20.00
2018-03-11T23:25:36.738Z,22.60
2018-03-11T23:28:06.186Z,18.40
2018-03-11T23:30:35.654Z,18.27
2018-03-11T23:33:05.161Z,18.67
2018-03-11T23:35:34.619Z,17.50
2018-03-11T23:38:04.154Z,18.47
2018-03-11T23:40:33.600Z,18.33
2018-03-11T23:43:03.041Z,19.00
2018-03-11T23:45:32.498Z,17.77
2018-03-11T23:48:01.939Z,16.23
2018-03-11T23:50:31.385Z,12.57
2018-03-11T23:53:00.838Z,11.30
2018-03-11T23:55:30.357Z,10.77
2018-03-11T23:57:59.881Z,10.80
